Time;durP1;ratioP1;P1;durP2;ratioP2;P2;SDS_P1;SDS_P2;PMS_P1;PMS_P2;Temp;Humidity;BMP_temperature;BMP_pressure;BME280_temperature;BME280_humidity;BME280_pressure;Samples;Min_cycle;Max_cycle;Signal;HPM_P1;HPM_P2
2021/09/08 00:00:05;;;;;;;4.38;3.22;;;;;;;;;;10282762;28;20053;-64
2021/09/08 00:05:10;;;;;;;4.90;3.40;;;;;;;;;;10283072;28;20053;-64
2021/09/08 00:10:09;;;;;;;7.10;3.28;;;;;;;;;;10282451;28;20449;-64
2021/09/08 00:15:10;;;;;;;6.75;3.22;;;;;;;;;;10282665;28;20049;-64
2021/09/08 00:20:10;;;;;;;4.45;2.72;;;;;;;;;;10281091;28;20052;-64
2021/09/08 00:25:08;;;;;;;10.15;3.53;;;;;;;;;;10280976;28;20051;-64
2021/09/08 00:30:10;;;;;;;4.32;3.05;;;;;;;;;;10281754;28;20087;-64
2021/09/08 00:35:09;;;;;;;3.88;2.83;;;;;;;;;;10282003;28;20079;-64
2021/09/08 00:40:10;;;;;;;8.25;3.28;;;;;;;;;;10280610;28;20088;-64
2021/09/08 00:45:14;;;;;;;6.03;3.78;;;;;;;;;;10281232;28;20513;-64
2021/09/08 00:50:13;;;;;;;5.90;2.72;;;;;;;;;;10281067;28;20080;-64
2021/09/08 00:55:12;;;;;;;5.55;3.05;;;;;;;;;;10279830;28;20072;-64
2021/09/08 01:00:11;;;;;;;4.32;2.92;;;;;;;;;;10280731;28;20041;-64
2021/09/08 01:05:12;;;;;;;5.00;3.00;;;;;;;;;;10279917;28;20061;-64
2021/09/08 01:10:14;;;;;;;4.13;2.92;;;;;;;;;;10278479;28;20107;-64
2021/09/08 01:15:12;;;;;;;5.45;2.70;;;;;;;;;;10280041;28;20102;-64
2021/09/08 01:20:13;;;;;;;6.30;3.20;;;;;;;;;;10279917;28;20049;-64
2021/09/08 01:25:16;;;;;;;3.20;2.75;;;;;;;;;;10280499;28;20049;-65
2021/09/08 01:30:15;;;;;;;5.30;3.08;;;;;;;;;;10280217;28;20497;-65
2021/09/08 01:35:14;;;;;;;6.90;2.97;;;;;;;;;;10279328;28;20399;-65
2021/09/08 01:40:14;;;;;;;4.30;2.67;;;;;;;;;;10279182;28;20045;-65
2021/09/08 01:45:13;;;;;;;3.35;2.25;;;;;;;;;;10279030;28;20037;-65
2021/09/08 01:50:12;;;;;;;4.75;2.13;;;;;;;;;;10280016;28;20041;-65
2021/09/08 01:55:11;;;;;;;2.80;2.17;;;;;;;;;;10283542;28;20380;-65
2021/09/08 02:00:12;;;;;;;3.65;2.35;;;;;;;;;;10278349;28;20079;-65
2021/09/08 02:05:12;;;;;;;6.75;2.03;;;;;;;;;;10277802;28;20100;-64
2021/09/08 02:10:11;;;;;;;2.92;2.25;;;;;;;;;;10277764;28;20076;-63
2021/09/08 02:15:12;;;;;;;4.25;2.70;;;;;;;;;;10277750;28;20049;-64
2021/09/08 02:20:11;;;;;;;3.58;2.30;;;;;;;;;;10277652;28;20537;-64
2021/09/08 02:25:10;;;;;;;3.63;2.45;;;;;;;;;;10277474;28;20053;-63
2021/09/08 02:30:09;;;;;;;5.90;2.75;;;;;;;;;;10277275;28;20100;-64
2021/09/08 02:35:10;;;;;;;5.53;2.85;;;;;;;;;;10277240;28;20040;-64
2021/09/08 02:40:09;;;;;;;5.78;3.03;;;;;;;;;;10276399;28;20056;-64
2021/09/08 02:45:08;;;;;;;2.85;2.55;;;;;;;;;;10276979;28;20076;-64
2021/09/08 02:50:07;;;;;;;4.20;2.60;;;;;;;;;;10276733;28;20105;-64
2021/09/08 02:55:08;;;;;;;5.63;3.08;;;;;;;;;;10274779;28;20057;-64
2021/09/08 03:00:07;;;;;;;4.90;3.15;;;;;;;;;;10276653;28;20048;-64
2021/09/08 03:05:06;;;;;;;5.85;3.50;;;;;;;;;;10275827;28;20053;-63
2021/09/08 03:10:07;;;;;;;6.63;3.03;;;;;;;;;;10276095;28;20090;-64
2021/09/08 03:15:06;;;;;;;6.30;2.97;;;;;;;;;;10276237;28;20049;-64
2021/09/08 03:20:06;;;;;;;4.80;2.50;;;;;;;;;;10275119;28;20502;-64
2021/09/08 03:25:07;;;;;;;8.88;2.90;;;;;;;;;;10274979;28;20053;-64
2021/09/08 03:30:07;;;;;;;3.60;3.00;;;;;;;;;;10275902;28;20056;-63
2021/09/08 03:35:06;;;;;;;3.85;3.10;;;;;;;;;;10275805;28;20538;-64
2021/09/08 03:40:05;;;;;;;4.68;2.83;;;;;;;;;;10275699;28;20045;-64
2021/09/08 03:45:06;;;;;;;7.43;2.97;;;;;;;;;;10275818;28;20041;-63
2021/09/08 03:50:05;;;;;;;4.38;2.92;;;;;;;;;;10275398;28;20060;-63
2021/09/08 03:55:04;;;;;;;4.20;3.13;;;;;;;;;;10282610;28;20045;-63
2021/09/08 04:00:03;;;;;;;6.78;3.55;;;;;;;;;;10282076;28;20037;-63
2021/09/08 04:05:03;;;;;;;5.75;3.75;;;;;;;;;;10282454;28;20045;-64
2021/09/08 04:10:02;;;;;;;5.80;3.80;;;;;;;;;;10282429;28;20079;-64
2021/09/08 04:15:00;;;;;;;5.07;3.63;;;;;;;;;;10281704;28;20429;-64
2021/09/08 04:19:59;;;;;;;5.43;3.58;;;;;;;;;;10282146;28;20499;-64
2021/09/08 04:24:58;;;;;;;4.28;3.28;;;;;;;;;;10281941;28;20040;-63
2021/09/08 04:29:59;;;;;;;4.78;3.40;;;;;;;;;;10281967;28;20098;-66
2021/09/08 04:34:57;;;;;;;6.18;3.58;;;;;;;;;;10281785;28;20410;-65
2021/09/08 04:39:55;;;;;;;6.55;4.60;;;;;;;;;;10281372;28;20506;-63
2021/09/08 04:44:55;;;;;;;12.85;6.70;;;;;;;;;;10280841;28;20045;-64
2021/09/08 04:49:53;;;;;;;14.65;4.30;;;;;;;;;;10281272;28;20079;-64
2021/09/08 04:54:51;;;;;;;8.48;4.22;;;;;;;;;;10278582;28;20076;-63
2021/09/08 04:59:50;;;;;;;14.50;10.68;;;;;;;;;;10278853;28;20077;-64
2021/09/08 05:04:49;;;;;;;12.75;8.55;;;;;;;;;;10278730;28;20053;-64
2021/09/08 05:09:48;;;;;;;6.68;4.20;;;;;;;;;;10276158;28;20076;-65
2021/09/08 05:14:46;;;;;;;7.25;4.82;;;;;;;;;;10275868;28;20083;-65
2021/09/08 05:19:44;;;;;;;7.32;5.10;;;;;;;;;;10275770;28;20330;-64
2021/09/08 05:24:44;;;;;;;10.60;5.03;;;;;;;;;;10278960;28;20076;-64
2021/09/08 05:29:42;;;;;;;8.00;5.28;;;;;;;;;;10278399;28;20152;-65
2021/09/08 05:34:40;;;;;;;8.50;5.28;;;;;;;;;;10279230;28;20056;-64
2021/09/08 05:39:39;;;;;;;15.35;6.18;;;;;;;;;;10279112;28;20048;-65
2021/09/08 05:44:39;;;;;;;13.20;6.53;;;;;;;;;;10278921;28;20430;-65
2021/09/08 05:49:37;;;;;;;11.35;5.38;;;;;;;;;;10278591;28;20506;-66
2021/09/08 05:54:39;;;;;;;6.47;4.70;;;;;;;;;;10278539;28;20407;-66
2021/09/08 05:59:39;;;;;;;5.80;4.03;;;;;;;;;;10277765;28;20151;-63
2021/09/08 06:04:37;;;;;;;5.03;3.50;;;;;;;;;;10277545;28;20049;-63
2021/09/08 06:09:35;;;;;;;4.15;2.90;;;;;;;;;;10277935;28;20308;-62
2021/09/08 06:14:34;;;;;;;4.68;4.18;;;;;;;;;;10276360;28;20076;-64
2021/09/08 06:19:35;;;;;;;17.50;12.32;;;;;;;;;;10277633;28;20402;-64
2021/09/08 06:24:33;;;;;;;4.88;2.80;;;;;;;;;;10276652;28;20045;-64
2021/09/08 06:29:32;;;;;;;8.30;3.05;;;;;;;;;;10273257;28;20060;-65
2021/09/08 06:34:30;;;;;;;7.20;2.80;;;;;;;;;;10272711;28;20076;-65
2021/09/08 06:39:30;;;;;;;5.25;3.17;;;;;;;;;;10276967;28;20045;-63
2021/09/08 06:44:28;;;;;;;6.57;3.33;;;;;;;;;;10276912;28;20076;-65
2021/09/08 06:49:27;;;;;;;7.47;3.13;;;;;;;;;;10276600;28;20073;-65
2021/09/08 06:54:25;;;;;;;7.72;2.58;;;;;;;;;;10276488;28;20077;-65
2021/09/08 06:59:25;;;;;;;11.35;3.13;;;;;;;;;;10275503;28;20045;-65
2021/09/08 07:04:23;;;;;;;12.68;4.85;;;;;;;;;;10275805;28;20072;-65
2021/09/08 07:09:21;;;;;;;3.83;2.40;;;;;;;;;;10276128;28;20457;-64
2021/09/08 07:14:20;;;;;;;4.38;2.28;;;;;;;;;;10276212;28;20079;-65
2021/09/08 07:19:20;;;;;;;5.85;2.30;;;;;;;;;;10275456;28;20045;-65
2021/09/08 07:24:18;;;;;;;4.95;2.25;;;;;;;;;;10276127;28;20502;-65
2021/09/08 07:29:17;;;;;;;10.73;2.33;;;;;;;;;;10282115;28;20518;-65
2021/09/08 07:34:15;;;;;;;4.60;3.03;;;;;;;;;;10283020;28;20186;-65
2021/09/08 07:39:15;;;;;;;8.57;3.40;;;;;;;;;;10283791;28;20048;-65
2021/09/08 07:44:13;;;;;;;5.32;2.72;;;;;;;;;;10283535;28;20045;-65
2021/09/08 07:49:11;;;;;;;17.38;13.90;;;;;;;;;;10282534;28;20041;-65
2021/09/08 07:54:10;;;;;;;7.53;3.40;;;;;;;;;;10283259;28;20052;-65
2021/09/08 07:59:09;;;;;;;6.32;3.03;;;;;;;;;;10282996;28;20418;-65
2021/09/08 08:04:09;;;;;;;5.85;3.00;;;;;;;;;;10282308;28;20049;-65
2021/09/08 08:09:08;;;;;;;5.72;3.38;;;;;;;;;;10282659;28;20237;-65
2021/09/08 08:14:06;;;;;;;8.32;3.75;;;;;;;;;;10282361;28;20187;-65
2021/09/08 08:19:09;;;;;;;6.82;2.47;;;;;;;;;;10282359;28;20597;-65
2021/09/08 08:24:07;;;;;;;7.57;2.78;;;;;;;;;;10282297;28;20052;-64
2021/09/08 08:29:05;;;;;;;3.97;2.13;;;;;;;;;;10281527;28;20045;-65
2021/09/08 08:34:04;;;;;;;6.22;2.33;;;;;;;;;;10281539;28;20088;-64
2021/09/08 08:39:03;;;;;;;7.43;4.82;;;;;;;;;;10280373;28;20049;-65
2021/09/08 08:44:02;;;;;;;6.78;2.63;;;;;;;;;;10281099;28;20041;-65
2021/09/08 08:49:01;;;;;;;3.95;2.03;;;;;;;;;;10281239;28;20053;-64
2021/09/08 08:53:59;;;;;;;11.88;9.90;;;;;;;;;;10280857;28;20072;-65
2021/09/08 08:58:59;;;;;;;5.50;3.38;;;;;;;;;;10280667;28;20044;-65
2021/09/08 09:04:01;;;;;;;7.38;3.03;;;;;;;;;;10279773;28;20084;-64
2021/09/08 09:09:01;;;;;;;5.68;2.95;;;;;;;;;;10280666;28;20056;-62
2021/09/08 09:14:01;;;;;;;13.90;6.15;;;;;;;;;;10279909;28;20125;-62
2021/09/08 09:19:00;;;;;;;7.40;2.72;;;;;;;;;;10279930;28;20037;-63
2021/09/08 09:23:59;;;;;;;5.38;2.80;;;;;;;;;;10279707;28;20056;-63
2021/09/08 09:29:07;;;;;;;7.60;2.20;;;;;;;;;;10278551;28;20087;-63
2021/09/08 09:34:10;;;;;;;7.15;2.25;;;;;;;;;;10279402;28;20077;-63
2021/09/08 09:39:08;;;;;;;5.38;2.17;;;;;;;;;;10279238;28;20056;-64
2021/09/08 09:44:09;;;;;;;6.15;2.40;;;;;;;;;;10278959;28;20049;-63
2021/09/08 09:49:08;;;;;;;6.82;2.58;;;;;;;;;;10278760;28;20057;-65
2021/09/08 09:54:06;;;;;;;6.10;3.65;;;;;;;;;;10277978;28;20080;-63
2021/09/08 09:59:04;;;;;;;8.43;4.18;;;;;;;;;;10278047;28;20084;-64
2021/09/08 10:04:04;;;;;;;5.25;3.40;;;;;;;;;;10277825;28;20057;-64
2021/09/08 10:09:03;;;;;;;6.75;3.05;;;;;;;;;;10277993;28;20056;-64
2021/09/08 10:14:03;;;;;;;8.90;4.32;;;;;;;;;;10277841;28;20088;-64
2021/09/08 10:19:05;;;;;;;5.22;3.47;;;;;;;;;;10277165;28;20549;-62
2021/09/08 10:24:04;;;;;;;8.57;3.40;;;;;;;;;;10276761;28;20083;-62
2021/09/08 10:29:07;;;;;;;6.68;3.63;;;;;;;;;;10277381;28;20548;-63
2021/09/08 10:34:08;;;;;;;10.95;3.75;;;;;;;;;;10274996;28;20086;-63
2021/09/08 10:39:08;;;;;;;3.95;2.70;;;;;;;;;;10276840;28;20053;-64
2021/09/08 10:44:06;;;;;;;9.27;3.67;;;;;;;;;;10277068;28;20044;-63
2021/09/08 10:49:05;;;;;;;8.10;4.95;;;;;;;;;;10276654;28;20423;-64
2021/09/08 10:54:05;;;;;;;11.40;3.05;;;;;;;;;;10276599;28;20088;-64
2021/09/08 10:59:03;;;;;;;5.82;3.40;;;;;;;;;;10276395;28;20506;-64
2021/09/08 11:04:02;;;;;;;10.80;3.75;;;;;;;;;;10275227;28;20057;-64
2021/09/08 11:09:02;;;;;;;5.28;3.08;;;;;;;;;;10276373;28;20410;-64
2021/09/08 11:14:02;;;;;;;4.25;3.40;;;;;;;;;;10276212;28;20084;-64
2021/09/08 11:19:01;;;;;;;9.43;2.95;;;;;;;;;;10276375;28;20071;-64
2021/09/08 11:24:03;;;;;;;9.27;3.20;;;;;;;;;;10275966;28;20442;-65
2021/09/08 11:29:03;;;;;;;3.42;3.00;;;;;;;;;;10273717;28;20057;-63
2021/09/08 11:34:02;;;;;;;8.38;3.10;;;;;;;;;;10275591;28;20482;-64
2021/09/08 11:39:01;;;;;;;4.65;2.65;;;;;;;;;;10275502;28;20045;-63
2021/09/08 11:44:02;;;;;;;5.53;2.60;;;;;;;;;;10275491;28;20490;-63
2021/09/08 11:49:05;;;;;;;8.48;3.33;;;;;;;;;;10275679;28;20052;-63
2021/09/08 11:54:05;;;;;;;7.38;2.75;;;;;;;;;;10275464;28;20461;-65
2021/09/08 11:59:03;;;;;;;4.15;2.72;;;;;;;;;;10275485;28;20049;-64
2021/09/08 12:04:02;;;;;;;4.63;2.92;;;;;;;;;;10275336;28;20076;-64
2021/09/08 12:09:03;;;;;;;7.32;3.15;;;;;;;;;;10275010;28;20048;-63
2021/09/08 12:14:20;;;;;;;7.50;3.50;;;;;;;;;;10277632;28;20521;-63
2021/09/08 12:19:19;;;;;;;9.98;3.30;;;;;;;;;;10281470;28;20053;-64
2021/09/08 12:24:29;;;;;;;6.05;2.63;;;;;;;;;;10282071;28;20044;-64
2021/09/08 12:29:27;;;;;;;9.07;3.42;;;;;;;;;;10281842;28;20041;-64
2021/09/08 12:34:42;;;;;;;6.30;2.80;;;;;;;;;;10281151;28;20074;-63
2021/09/08 12:39:45;;;;;;;4.32;2.42;;;;;;;;;;10281492;28;20049;-63
2021/09/08 12:44:43;;;;;;;6.78;2.95;;;;;;;;;;10281406;28;20075;-63
2021/09/08 12:49:42;;;;;;;6.97;3.45;;;;;;;;;;10280202;28;20052;-64
2021/09/08 12:54:41;;;;;;;9.75;3.03;;;;;;;;;;10280938;28;20095;-63
2021/09/08 12:59:41;;;;;;;8.45;3.28;;;;;;;;;;10280754;28;20494;-63
2021/09/08 13:04:40;;;;;;;7.82;3.63;;;;;;;;;;10280202;28;20052;-64
2021/09/08 13:09:39;;;;;;;12.38;4.43;;;;;;;;;;10280816;28;20055;-63
2021/09/08 13:14:38;;;;;;;11.07;3.72;;;;;;;;;;10280293;28;20083;-65
2021/09/08 13:19:37;;;;;;;12.60;4.00;;;;;;;;;;10280190;28;20087;-63
2021/09/08 13:24:36;;;;;;;5.97;3.20;;;;;;;;;;10279437;28;20088;-64
2021/09/08 13:29:35;;;;;;;5.85;2.78;;;;;;;;;;10279491;28;20087;-64
2021/09/08 13:34:33;;;;;;;11.70;3.53;;;;;;;;;;10279322;28;20068;-64
2021/09/08 13:39:33;;;;;;;12.90;5.15;;;;;;;;;;10279389;28;20490;-64
2021/09/08 13:44:31;;;;;;;9.57;7.05;;;;;;;;;;10278923;28;20045;-64
2021/09/08 13:49:29;;;;;;;8.40;5.05;;;;;;;;;;10278907;28;20087;-64
2021/09/08 13:54:28;;;;;;;9.02;4.03;;;;;;;;;;10278544;28;20055;-64
2021/09/08 13:59:28;;;;;;;7.60;3.70;;;;;;;;;;10278838;28;20087;-65
2021/09/08 14:04:26;;;;;;;4.28;2.92;;;;;;;;;;10277683;28;20053;-64
2021/09/08 14:09:24;;;;;;;6.32;3.83;;;;;;;;;;10278057;28;20422;-65
2021/09/08 14:14:23;;;;;;;22.35;17.05;;;;;;;;;;10277864;28;20076;-64
2021/09/08 14:19:22;;;;;;;11.50;3.53;;;;;;;;;;10277240;28;20048;-62
2021/09/08 14:24:21;;;;;;;7.50;3.67;;;;;;;;;;10274827;28;20483;-63
2021/09/08 14:29:19;;;;;;;5.68;3.15;;;;;;;;;;10273327;28;20084;-62
2021/09/08 14:34:17;;;;;;;7.47;3.28;;;;;;;;;;10274355;28;20486;-64
2021/09/08 14:39:18;;;;;;;9.32;2.90;;;;;;;;;;10276478;28;20529;-62
2021/09/08 14:44:17;;;;;;;6.93;4.55;;;;;;;;;;10277156;28;20395;-62
2021/09/08 14:49:15;;;;;;;4.32;3.00;;;;;;;;;;10276796;28;20052;-63
2021/09/08 14:54:13;;;;;;;9.75;3.00;;;;;;;;;;10277053;28;20080;-63
2021/09/08 14:59:13;;;;;;;7.20;3.20;;;;;;;;;;10276543;28;20048;-63
2021/09/08 15:04:12;;;;;;;8.90;6.03;;;;;;;;;;10275652;28;20053;-63
2021/09/08 15:09:10;;;;;;;13.65;3.22;;;;;;;;;;10276217;28;20041;-63
2021/09/08 15:14:09;;;;;;;6.05;3.22;;;;;;;;;;10276090;28;20080;-64
2021/09/08 15:19:09;;;;;;;9.43;2.85;;;;;;;;;;10275201;28;20040;-62
2021/09/08 15:24:07;;;;;;;10.73;3.72;;;;;;;;;;10276075;28;20048;-63
2021/09/08 15:29:05;;;;;;;10.55;3.67;;;;;;;;;;10275595;28;20103;-63
2021/09/08 15:34:04;;;;;;;18.65;4.85;;;;;;;;;;10275618;28;20081;-62
2021/09/08 15:39:03;;;;;;;11.43;3.45;;;;;;;;;;10275563;28;20045;-63
2021/09/08 15:44:02;;;;;;;8.65;3.40;;;;;;;;;;10275602;28;20052;-64
2021/09/08 15:49:00;;;;;;;5.32;3.42;;;;;;;;;;10279582;28;20041;-64
2021/09/08 15:53:58;;;;;;;13.38;5.93;;;;;;;;;;10282984;28;20084;-63
2021/09/08 15:58:58;;;;;;;16.15;8.98;;;;;;;;;;10282942;28;20414;-63
2021/09/08 16:03:56;;;;;;;24.63;13.35;;;;;;;;;;10282675;28;20053;-63
2021/09/08 16:08:55;;;;;;;18.35;6.40;;;;;;;;;;10282524;28;20422;-64
2021/09/08 16:13:53;;;;;;;15.90;8.90;;;;;;;;;;10282660;28;20470;-64
2021/09/08 16:18:54;;;;;;;15.13;5.68;;;;;;;;;;10282248;28;20053;-63
2021/09/08 16:23:53;;;;;;;13.05;4.63;;;;;;;;;;10282064;28;20049;-64
2021/09/08 16:28:51;;;;;;;13.93;5.22;;;;;;;;;;10281694;28;20084;-64
2021/09/08 16:33:49;;;;;;;13.27;7.18;;;;;;;;;;10281641;28;20487;-64
2021/09/08 16:38:49;;;;;;;9.88;4.90;;;;;;;;;;10281229;28;20036;-64
2021/09/08 16:43:50;;;;;;;15.15;5.38;;;;;;;;;;10279766;28;20080;-63
2021/09/08 16:48:49;;;;;;;14.02;7.35;;;;;;;;;;10281450;28;20051;-64
2021/09/08 16:53:50;;;;;;;11.27;3.97;;;;;;;;;;10280973;28;20468;-64
2021/09/08 16:58:48;;;;;;;8.85;3.70;;;;;;;;;;10279642;28;20048;-64
2021/09/08 17:03:47;;;;;;;6.03;3.20;;;;;;;;;;10279944;28;20056;-63
2021/09/08 17:08:52;;;;;;;12.13;3.95;;;;;;;;;;10278488;28;20517;-63
2021/09/08 17:13:51;;;;;;;8.32;3.28;;;;;;;;;;10280050;28;20048;-63
2021/09/08 17:18:49;;;;;;;8.90;3.33;;;;;;;;;;10278933;28;20045;-63
2021/09/08 17:23:48;;;;;;;7.90;3.58;;;;;;;;;;10279807;28;20048;-65
2021/09/08 17:28:49;;;;;;;6.45;2.85;;;;;;;;;;10281915;28;20068;-64
2021/09/08 17:33:49;;;;;;;8.93;5.55;;;;;;;;;;10283709;28;20073;-64
2021/09/08 17:38:49;;;;;;;12.52;3.10;;;;;;;;;;10279025;28;20422;-64
2021/09/08 17:43:49;;;;;;;7.03;2.80;;;;;;;;;;10277656;28;20060;-64
2021/09/08 17:48:48;;;;;;;8.95;3.17;;;;;;;;;;10278181;28;20053;-64
2021/09/08 17:53:47;;;;;;;6.40;4.97;;;;;;;;;;10278252;28;20084;-64
2021/09/08 17:58:45;;;;;;;13.27;4.45;;;;;;;;;;10278406;28;20080;-64
2021/09/08 18:03:45;;;;;;;5.60;2.75;;;;;;;;;;10278193;28;20057;-64
2021/09/08 18:08:44;;;;;;;9.73;3.38;;;;;;;;;;10277689;28;20509;-65
2021/09/08 18:13:44;;;;;;;8.88;3.35;;;;;;;;;;10277531;28;20510;-63
2021/09/08 18:18:43;;;;;;;6.55;3.38;;;;;;;;;;10276188;28;20529;-64
2021/09/08 18:23:43;;;;;;;8.10;4.03;;;;;;;;;;10277883;28;20053;-63
2021/09/08 18:28:41;;;;;;;5.00;3.00;;;;;;;;;;10277131;28;20414;-66
2021/09/08 18:33:40;;;;;;;9.98;3.85;;;;;;;;;;10285693;28;20072;-64
2021/09/08 18:38:39;;;;;;;11.07;4.38;;;;;;;;;;10277124;28;20069;-63
2021/09/08 18:43:40;;;;;;;9.48;4.82;;;;;;;;;;10276584;28;20403;-64
2021/09/08 18:48:39;;;;;;;6.93;3.67;;;;;;;;;;10276615;28;20518;-62
2021/09/08 18:53:37;;;;;;;5.25;3.45;;;;;;;;;;10276025;28;20044;-65
2021/09/08 18:58:36;;;;;;;10.30;3.13;;;;;;;;;;10276097;28;20072;-63
2021/09/08 19:03:38;;;;;;;8.82;3.45;;;;;;;;;;10285461;28;20076;-63
2021/09/08 19:08:37;;;;;;;3.70;2.80;;;;;;;;;;10293623;28;20068;-63
2021/09/08 19:13:36;;;;;;;8.55;3.22;;;;;;;;;;10309843;28;20084;-64
2021/09/08 19:18:36;;;;;;;4.95;2.45;;;;;;;;;;10309813;28;20072;-65
2021/09/08 19:23:37;;;;;;;4.07;2.50;;;;;;;;;;10281315;28;20072;-65
2021/09/08 19:28:36;;;;;;;7.82;2.50;;;;;;;;;;10284010;28;20159;-65
2021/09/08 19:33:37;;;;;;;5.90;2.80;;;;;;;;;;10284011;28;20414;-65
2021/09/08 19:38:35;;;;;;;5.57;4.05;;;;;;;;;;10283603;28;20048;-64
2021/09/08 19:43:34;;;;;;;4.45;3.08;;;;;;;;;;10283682;28;20048;-63
2021/09/08 19:48:32;;;;;;;8.43;4.30;;;;;;;;;;10283438;28;20074;-63
2021/09/08 19:53:32;;;;;;;6.38;3.00;;;;;;;;;;10282354;28;20525;-65
2021/09/08 19:58:31;;;;;;;6.22;3.53;;;;;;;;;;10282874;28;20072;-65
2021/09/08 20:03:29;;;;;;;7.63;3.40;;;;;;;;;;10281610;28;20049;-64
2021/09/08 20:08:28;;;;;;;4.55;2.40;;;;;;;;;;10282697;28;20064;-65
2021/09/08 20:13:29;;;;;;;3.75;2.30;;;;;;;;;;10282384;28;20061;-64
2021/09/08 20:18:27;;;;;;;4.93;2.63;;;;;;;;;;10281415;28;20080;-64
2021/09/08 20:23:26;;;;;;;7.20;3.10;;;;;;;;;;10281228;28;20065;-63
2021/09/08 20:28:24;;;;;;;4.20;2.17;;;;;;;;;;10282055;28;20076;-64
2021/09/08 20:33:24;;;;;;;8.20;2.42;;;;;;;;;;10280809;28;20055;-64
2021/09/08 20:38:22;;;;;;;5.22;2.50;;;;;;;;;;10281360;28;20494;-64
2021/09/08 20:43:21;;;;;;;7.30;2.63;;;;;;;;;;10281364;28;20060;-64
2021/09/08 20:48:20;;;;;;;6.47;2.45;;;;;;;;;;10281505;28;20077;-64
2021/09/08 20:53:21;;;;;;;9.25;3.10;;;;;;;;;;10281340;28;20045;-64
2021/09/08 20:58:20;;;;;;;8.73;2.58;;;;;;;;;;10280723;28;20080;-64
2021/09/08 21:03:18;;;;;;;4.60;2.20;;;;;;;;;;10280431;28;20079;-64
2021/09/08 21:08:17;;;;;;;8.98;2.85;;;;;;;;;;10280421;28;20069;-64
2021/09/08 21:13:17;;;;;;;7.47;2.92;;;;;;;;;;10280055;28;20044;-64
2021/09/08 21:18:15;;;;;;;5.55;2.35;;;;;;;;;;10279910;28;20083;-65
2021/09/08 21:23:13;;;;;;;4.30;2.97;;;;;;;;;;10279654;28;20072;-65
2021/09/08 21:28:12;;;;;;;3.70;2.25;;;;;;;;;;10279549;28;20427;-63
2021/09/08 21:33:11;;;;;;;5.80;2.65;;;;;;;;;;10279399;28;20486;-64
2021/09/08 21:38:10;;;;;;;9.40;2.75;;;;;;;;;;10278925;28;20140;-64
2021/09/08 21:43:09;;;;;;;4.72;2.40;;;;;;;;;;10279170;28;20044;-63
2021/09/08 21:48:07;;;;;;;3.42;2.70;;;;;;;;;;10278463;28;20052;-64
2021/09/08 21:53:07;;;;;;;7.60;2.70;;;;;;;;;;10278406;28;20045;-64
2021/09/08 21:58:05;;;;;;;8.90;2.53;;;;;;;;;;10278446;28;20095;-64
2021/09/08 22:03:04;;;;;;;5.30;3.13;;;;;;;;;;10277938;28;20361;-64
2021/09/08 22:08:02;;;;;;;8.00;2.80;;;;;;;;;;10278211;28;20045;-64
2021/09/08 22:13:02;;;;;;;5.30;2.40;;;;;;;;;;10278497;28;20045;-65
2021/09/08 22:18:01;;;;;;;5.68;2.90;;;;;;;;;;10277571;28;20083;-65
2021/09/08 22:22:59;;;;;;;8.20;2.95;;;;;;;;;;10277326;28;20475;-63
2021/09/08 22:27:57;;;;;;;10.10;2.75;;;;;;;;;;10277126;28;20055;-64
2021/09/08 22:32:57;;;;;;;5.25;2.50;;;;;;;;;;10276929;28;20088;-64
2021/09/08 22:37:55;;;;;;;3.83;3.03;;;;;;;;;;10277152;28;20087;-63
2021/09/08 22:42:54;;;;;;;9.75;3.42;;;;;;;;;;10276637;28;20060;-64
2021/09/08 22:47:52;;;;;;;4.75;2.75;;;;;;;;;;10276303;28;20068;-64
2021/09/08 22:52:52;;;;;;;4.82;2.97;;;;;;;;;;10276205;28;20076;-65
2021/09/08 22:57:50;;;;;;;4.53;3.05;;;;;;;;;;10275358;28;20044;-65
2021/09/08 23:02:49;;;;;;;6.38;2.92;;;;;;;;;;10276007;28;20084;-65
2021/09/08 23:07:48;;;;;;;5.80;3.15;;;;;;;;;;10275937;28;20076;-65
2021/09/08 23:12:47;;;;;;;3.70;2.90;;;;;;;;;;10275685;28;20067;-65
2021/09/08 23:17:46;;;;;;;9.57;3.47;;;;;;;;;;10275901;28;20076;-65
2021/09/08 23:22:45;;;;;;;6.43;2.85;;;;;;;;;;10275029;28;20105;-66
2021/09/08 23:27:44;;;;;;;6.43;3.45;;;;;;;;;;10276499;28;20406;-66
2021/09/08 23:32:45;;;;;;;5.55;3.30;;;;;;;;;;10275838;28;20091;-65
2021/09/08 23:37:44;;;;;;;8.05;3.13;;;;;;;;;;10276145;28;20152;-65
2021/09/08 23:42:45;;;;;;;6.57;3.30;;;;;;;;;;10275832;28;20052;-65
2021/09/08 23:47:45;;;;;;;6.35;3.47;;;;;;;;;;10275105;28;20049;-65
2021/09/08 23:52:44;;;;;;;7.45;3.35;;;;;;;;;;10275337;28;20052;-65
2021/09/08 23:57:43;;;;;;;4.43;2.80;;;;;;;;;;10275514;28;20088;-65
